Terminal Aerodrome Forecast
Issued by NWS Omaha/Valley, NE

Home | Current Version | Previous Version | Text Only | Print | Product List | Glossary On
Versions: 1 2 3 4 5 6 7 8 9 10 11 12 13 14 15 16 17 18 19
000
FTUS43 KOAX 241309 AAA
TAFOMA
TAF AMD
KOMA 241309Z 2413/2512 06007KT 1SM -FZDZ BR OVC006
      TEMPO 2413/2415 3SM -FZRA BR SCT007 OVC035
     FM241700 09008KT 1SM -FZDZSN OVC008
     FM241900 10008KT 1SM -SN OVC012
     FM242200 VRB03KT 4SM BR OVC015
     FM250100 29008KT 6SM BR SCT007 BKN040=

USA.gov is the U.S. government's official web portal to all federal, state and local government web resources and services.